Time;durP1;ratioP1;P1;durP2;ratioP2;P2;SDS_P1;SDS_P2;PMS_P1;PMS_P2;Temp;Humidity;BMP_temperature;BMP_pressure;BME280_temperature;BME280_humidity;BME280_pressure;Samples;Min_cycle;Max_cycle;Signal;HPM_P1;HPM_P2
2021/10/20 00:01:23;;;;;;;1.83;1.30;;;15.70;90.50;;;;;;5077247;28;20070;-78
2021/10/20 00:03:48;;;;;;;2.97;1.45;;;15.70;90.50;;;;;;5060176;28;20047;-79
2021/10/20 00:06:14;;;;;;;1.95;1.38;;;15.70;90.50;;;;;;5077327;28;20440;-79
2021/10/20 00:08:41;;;;;;;2.03;1.27;;;15.70;90.40;;;;;;5077139;28;20389;-78
2021/10/20 00:11:08;;;;;;;1.63;1.30;;;15.70;90.40;;;;;;5062629;28;20032;-79
2021/10/20 00:13:34;;;;;;;1.63;1.27;;;15.70;90.40;;;;;;5095455;28;20028;-79
2021/10/20 00:16:00;;;;;;;2.58;1.38;;;15.70;90.40;;;;;;5076222;28;20032;-78
2021/10/20 00:18:27;;;;;;;1.92;1.45;;;15.70;90.40;;;;;;5094188;28;20127;-79
2021/10/20 00:20:52;;;;;;;1.90;1.30;;;15.60;90.40;;;;;;5059425;28;20086;-79
2021/10/20 00:23:18;;;;;;;1.83;1.33;;;15.50;90.30;;;;;;5094560;28;20059;-78
2021/10/20 00:25:46;;;;;;;1.85;1.40;;;15.60;90.40;;;;;;5095669;28;20032;-79
2021/10/20 00:28:11;;;;;;;2.25;1.23;;;15.60;90.30;;;;;;5094803;28;20130;-79
2021/10/20 00:30:37;;;;;;;2.58;1.42;;;15.50;90.30;;;;;;5094614;28;20123;-78
2021/10/20 00:33:03;;;;;;;2.25;1.33;;;15.50;90.30;;;;;;5094071;28;20040;-78
2021/10/20 00:35:28;;;;;;;1.73;1.25;;;15.60;90.30;;;;;;5075840;28;20509;-78
2021/10/20 00:37:54;;;;;;;1.92;1.30;;;15.50;90.20;;;;;;5076208;28;20044;-79
2021/10/20 00:40:20;;;;;;;1.45;1.33;;;15.60;90.20;;;;;;5059318;28;20490;-79
2021/10/20 00:42:46;;;;;;;1.90;1.30;;;15.60;90.20;;;;;;5075519;28;20036;-78
2021/10/20 00:45:13;;;;;;;1.50;1.20;;;15.60;90.10;;;;;;5093798;28;20055;-79
2021/10/20 00:47:40;;;;;;;2.22;1.50;;;15.60;90.10;;;;;;5094152;28;20040;-78
2021/10/20 00:50:09;;;;;;;2.30;1.38;;;15.60;90.00;;;;;;5094525;28;20055;-79
2021/10/20 00:52:35;;;;;;;1.92;1.40;;;15.60;90.00;;;;;;5076689;28;20476;-79
2021/10/20 00:55:01;;;;;;;1.75;1.25;;;15.60;90.00;;;;;;5092940;28;20133;-79
2021/10/20 00:57:29;;;;;;;2.35;1.38;;;15.60;89.90;;;;;;5075504;28;20054;-78
2021/10/20 00:59:56;;;;;;;2.30;1.50;;;15.70;89.80;;;;;;5059800;28;20048;-79
2021/10/20 01:02:22;;;;;;;2.10;1.58;;;15.80;89.60;;;;;;5042874;28;20032;-79
2021/10/20 01:04:48;;;;;;;2.60;1.80;;;15.70;89.40;;;;;;5075798;28;20097;-79
2021/10/20 01:07:16;;;;;;;2.60;1.60;;;15.80;89.20;;;;;;5093925;28;20050;-78
2021/10/20 01:09:42;;;;;;;2.20;1.50;;;15.80;89.00;;;;;;5077314;28;20070;-79
2021/10/20 01:12:08;;;;;;;2.33;1.67;;;15.80;89.00;;;;;;5078142;28;20424;-79
2021/10/20 01:14:34;;;;;;;3.75;1.70;;;15.80;88.90;;;;;;5061210;28;20084;-79
2021/10/20 01:17:00;;;;;;;3.40;1.77;;;15.90;88.80;;;;;;5061486;28;20047;-78
2021/10/20 01:19:27;;;;;;;1.80;1.45;;;15.90;88.70;;;;;;5096082;28;20060;-79
2021/10/20 01:21:54;;;;;;;2.78;1.30;;;15.90;88.60;;;;;;5081799;28;20547;-79
2021/10/20 01:24:22;;;;;;;3.00;1.30;;;15.90;88.60;;;;;;5079966;28;20485;-79
2021/10/20 01:26:53;;;;;;;1.60;1.40;;;15.90;88.50;;;;;;5099381;28;20109;-79
2021/10/20 01:29:20;;;;;;;1.60;1.45;;;15.90;88.50;;;;;;5079887;28;20077;-79
2021/10/20 01:31:49;;;;;;;2.47;1.40;;;15.90;88.40;;;;;;5065811;28;20024;-79
2021/10/20 01:34:15;;;;;;;2.38;1.70;;;16.00;88.40;;;;;;5077563;28;20111;-79
2021/10/20 01:36:42;;;;;;;2.40;1.60;;;16.00;88.20;;;;;;5061467;28;20048;-78
2021/10/20 01:39:09;;;;;;;2.42;1.40;;;16.10;88.00;;;;;;5075956;28;20038;-80
2021/10/20 01:41:36;;;;;;;2.63;1.67;;;16.00;87.80;;;;;;5058713;28;20032;-79
2021/10/20 01:44:02;;;;;;;2.75;1.90;;;16.10;87.80;;;;;;5093994;28;20119;-79
2021/10/20 01:46:28;;;;;;;2.22;1.50;;;16.10;87.70;;;;;;5094200;28;20449;-80
2021/10/20 01:48:53;;;;;;;2.90;1.73;;;16.10;87.70;;;;;;5060830;28;20104;-79
2021/10/20 01:51:19;;;;;;;3.33;1.65;;;16.10;87.70;;;;;;5076359;28;20032;-79
2021/10/20 01:53:45;;;;;;;2.58;1.60;;;16.10;87.50;;;;;;5078237;28;20047;-78
2021/10/20 01:56:12;;;;;;;1.75;1.35;;;16.10;87.50;;;;;;5076791;28;20028;-79
2021/10/20 01:58:40;;;;;;;1.95;1.40;;;16.20;87.50;;;;;;5059153;28;20040;-80
2021/10/20 02:01:08;;;;;;;2.40;1.63;;;16.10;87.60;;;;;;5076040;28;20036;-79
2021/10/20 02:03:36;;;;;;;2.88;1.63;;;16.10;87.50;;;;;;5075796;28;20032;-78
2021/10/20 02:06:04;;;;;;;1.80;1.38;;;16.10;87.40;;;;;;5093568;28;20043;-79
2021/10/20 02:08:30;;;;;;;3.35;1.50;;;16.00;87.30;;;;;;5076649;28;20040;-79
2021/10/20 02:10:56;;;;;;;2.53;1.38;;;16.10;88.00;;;;;;5096526;28;20032;-79
2021/10/20 02:13:23;;;;;;;2.05;1.65;;;16.00;87.30;;;;;;5076098;28;20485;-79
2021/10/20 02:15:51;;;;;;;2.28;1.50;;;16.10;87.30;;;;;;5074928;28;20154;-79
2021/10/20 02:18:16;;;;;;;2.30;1.55;;;16.10;87.10;;;;;;5076690;28;20036;-80
2021/10/20 02:20:43;;;;;;;2.63;1.85;;;16.00;87.00;;;;;;5076150;28;20057;-79
2021/10/20 02:23:09;;;;;;;2.97;1.85;;;16.10;87.10;;;;;;5094196;28;20477;-79
2021/10/20 02:25:34;;;;;;;2.08;1.65;;;16.10;87.00;;;;;;5076060;28;20043;-79
2021/10/20 02:28:00;;;;;;;2.55;1.88;;;16.10;87.00;;;;;;5077312;28;20040;-79
2021/10/20 02:30:26;;;;;;;1.88;1.40;;;16.10;86.90;;;;;;5094366;28;20099;-79
2021/10/20 02:32:53;;;;;;;2.50;1.50;;;16.10;86.90;;;;;;5077266;28;20063;-79
2021/10/20 02:35:19;;;;;;;2.17;1.48;;;16.10;86.90;;;;;;5061041;28;20055;-78
2021/10/20 02:37:45;;;;;;;2.15;1.50;;;16.10;86.90;;;;;;5081383;28;20048;-78
2021/10/20 02:40:12;;;;;;;2.22;1.30;;;16.10;86.90;;;;;;5060117;28;20043;-79
2021/10/20 02:42:39;;;;;;;2.40;1.70;;;16.00;86.80;;;;;;5060236;28;20052;-79
2021/10/20 02:45:07;;;;;;;2.40;1.70;;;16.00;86.80;;;;;;5077624;28;20126;-79
2021/10/20 02:47:33;;;;;;;2.05;1.50;;;16.00;86.80;;;;;;5059775;28;20043;-79
2021/10/20 02:49:59;;;;;;;2.33;1.40;;;16.00;86.90;;;;;;5060509;28;20040;-79
2021/10/20 02:52:24;;;;;;;2.22;1.58;;;16.00;86.90;;;;;;5077665;28;20055;-79
2021/10/20 02:54:50;;;;;;;2.08;1.38;;;15.90;86.70;;;;;;5061860;28;20107;-79
2021/10/20 02:57:16;;;;;;;2.70;1.83;;;15.80;86.70;;;;;;5079022;28;20044;-79
2021/10/20 02:59:41;;;;;;;1.92;1.45;;;15.90;86.80;;;;;;5095785;28;20051;-80
2021/10/20 03:02:07;;;;;;;2.15;1.45;;;15.90;86.80;;;;;;5094544;28;20068;-79
2021/10/20 03:04:33;;;;;;;2.03;1.42;;;15.90;86.80;;;;;;5097836;28;20036;-79
2021/10/20 03:06:58;;;;;;;2.00;1.50;;;15.90;86.80;;;;;;5096204;28;20028;-78
2021/10/20 03:09:24;;;;;;;2.25;1.58;;;15.90;86.90;;;;;;5096719;28;20051;-79
2021/10/20 03:11:50;;;;;;;2.03;1.30;;;15.90;87.00;;;;;;5045562;28;20036;-79
2021/10/20 03:14:16;;;;;;;2.50;1.83;;;15.90;87.00;;;;;;5062352;28;20464;-79
2021/10/20 03:16:42;;;;;;;2.65;1.60;;;15.90;87.00;;;;;;5075999;28;20056;-79
2021/10/20 03:19:08;;;;;;;2.65;1.80;;;15.90;86.80;;;;;;5096198;28;20036;-79
2021/10/20 03:21:34;;;;;;;2.08;1.48;;;15.90;86.70;;;;;;5077567;28;20044;-79
2021/10/20 03:24:00;;;;;;;4.40;1.88;;;15.90;86.50;;;;;;5098355;28;20116;-79
2021/10/20 03:26:25;;;;;;;2.40;1.55;;;15.90;86.50;;;;;;5100691;28;20431;-80
2021/10/20 03:28:51;;;;;;;2.40;1.48;;;15.90;86.40;;;;;;5080818;28;20600;-78
2021/10/20 03:31:17;;;;;;;2.83;1.67;;;15.90;86.50;;;;;;5063401;28;20055;-78
2021/10/20 03:33:44;;;;;;;2.70;1.75;;;15.90;86.50;;;;;;5084964;28;20050;-78
2021/10/20 03:36:09;;;;;;;3.20;1.95;;;15.90;86.60;;;;;;5082894;28;20043;-79
2021/10/20 03:38:35;;;;;;;2.97;1.92;;;16.00;86.40;;;;;;5100668;28;20048;-78
2021/10/20 03:41:01;;;;;;;2.90;1.90;;;16.00;86.20;;;;;;5100219;28;20051;-79
2021/10/20 03:43:27;;;;;;;2.88;1.90;;;16.00;86.10;;;;;;5047330;28;20142;-77
2021/10/20 03:45:52;;;;;;;3.25;2.00;;;16.00;86.00;;;;;;5064412;28;20040;-77
2021/10/20 03:48:18;;;;;;;3.08;1.67;;;16.00;86.00;;;;;;5082051;28;20489;-78
2021/10/20 03:50:44;;;;;;;3.25;1.92;;;15.90;86.20;;;;;;5083672;28;20079;-78
2021/10/20 03:53:09;;;;;;;4.13;2.00;;;15.90;86.10;;;;;;5044985;28;20036;-78
2021/10/20 03:55:36;;;;;;;2.00;1.70;;;16.00;86.10;;;;;;5080527;28;20036;-78
2021/10/20 03:58:02;;;;;;;2.83;1.80;;;16.00;86.00;;;;;;5099309;28;20125;-79
2021/10/20 04:00:28;;;;;;;3.22;1.92;;;15.90;86.00;;;;;;5096162;28;20100;-78
2021/10/20 04:02:54;;;;;;;3.88;2.30;;;15.90;86.00;;;;;;5068768;28;20032;-78
2021/10/20 04:05:20;;;;;;;3.10;1.92;;;16.00;86.00;;;;;;5066238;28;20485;-78
2021/10/20 04:07:48;;;;;;;3.60;1.98;;;16.00;85.90;;;;;;5063779;28;20557;-78
2021/10/20 04:10:18;;;;;;;2.75;1.90;;;16.00;86.00;;;;;;5080784;28;20131;-79
2021/10/20 04:12:45;;;;;;;3.25;2.05;;;15.90;85.90;;;;;;5080895;28;20040;-78
2021/10/20 04:15:14;;;;;;;3.00;2.10;;;16.00;86.00;;;;;;5078704;28;20040;-77
2021/10/20 04:17:39;;;;;;;2.92;1.90;;;15.90;85.90;;;;;;5096342;28;20044;-77
2021/10/20 04:20:07;;;;;;;3.28;2.15;;;15.90;85.90;;;;;;5084411;28;20531;-78
2021/10/20 04:22:33;;;;;;;3.78;2.35;;;15.90;85.90;;;;;;5085309;28;20036;-78
2021/10/20 04:24:59;;;;;;;3.83;2.22;;;16.00;85.80;;;;;;5079114;28;20032;-78
2021/10/20 04:27:25;;;;;;;4.13;2.03;;;16.00;85.70;;;;;;5086063;28;20032;-78
2021/10/20 04:29:51;;;;;;;3.65;1.98;;;16.00;85.60;;;;;;5080723;28;20070;-78
2021/10/20 04:32:16;;;;;;;3.55;2.22;;;16.00;85.60;;;;;;5084253;28;20052;-78
2021/10/20 04:34:42;;;;;;;2.92;1.90;;;16.00;85.60;;;;;;5080099;28;20032;-79
2021/10/20 04:37:08;;;;;;;3.53;2.10;;;16.00;85.60;;;;;;5103724;28;20058;-79
2021/10/20 04:39:33;;;;;;;3.53;1.85;;;16.00;85.60;;;;;;5068219;28;20055;-78
2021/10/20 04:41:59;;;;;;;2.88;2.00;;;16.00;85.60;;;;;;5099664;28;20036;-79
2021/10/20 04:44:25;;;;;;;3.20;2.30;;;16.00;85.60;;;;;;5084294;28;20423;-78
2021/10/20 04:46:51;;;;;;;3.85;2.42;;;16.00;85.50;;;;;;5098980;28;20052;-78
2021/10/20 04:49:16;;;;;;;4.00;2.20;;;16.10;85.30;;;;;;5084434;28;20139;-78
2021/10/20 04:51:42;;;;;;;2.95;1.88;;;16.10;85.30;;;;;;5083321;28;20039;-78
2021/10/20 04:54:08;;;;;;;2.70;1.92;;;16.10;85.30;;;;;;5099043;28;20058;-79
2021/10/20 04:56:33;;;;;;;3.28;2.08;;;16.10;85.30;;;;;;5084206;28;20043;-77
2021/10/20 04:58:59;;;;;;;3.35;2.40;;;16.10;85.30;;;;;;5098837;28;20044;-77
2021/10/20 05:01:25;;;;;;;2.80;1.90;;;16.20;85.20;;;;;;5060780;28;20043;-78
2021/10/20 05:03:50;;;;;;;3.03;2.00;;;16.20;85.10;;;;;;5078610;28;20043;-78
2021/10/20 05:06:16;;;;;;;3.08;2.00;;;16.20;85.10;;;;;;5077201;28;20036;-77
2021/10/20 05:08:42;;;;;;;3.33;2.20;;;16.20;85.10;;;;;;5059506;28;20044;-78
2021/10/20 05:11:07;;;;;;;3.80;2.20;;;16.20;85.10;;;;;;5080922;28;20084;-78
2021/10/20 05:13:33;;;;;;;4.35;2.50;;;16.20;85.10;;;;;;5077135;28;20078;-79
2021/10/20 05:15:59;;;;;;;3.65;2.13;;;16.30;85.10;;;;;;5043852;28;20040;-79
2021/10/20 05:18:24;;;;;;;3.63;2.22;;;16.30;84.90;;;;;;5076444;28;20088;-79
2021/10/20 05:20:50;;;;;;;4.03;2.42;;;16.30;84.80;;;;;;5096253;28;20040;-79
2021/10/20 05:23:16;;;;;;;3.28;2.20;;;16.30;84.80;;;;;;5095923;28;20074;-78
2021/10/20 05:25:42;;;;;;;3.35;2.20;;;16.30;84.80;;;;;;5079715;28;20036;-78
2021/10/20 05:28:08;;;;;;;3.80;2.20;;;16.30;84.90;;;;;;5079319;28;20040;-78
2021/10/20 05:30:34;;;;;;;3.33;2.30;;;16.30;84.90;;;;;;5080315;28;20121;-79
2021/10/20 05:33:00;;;;;;;3.30;1.92;;;16.20;84.90;;;;;;5059258;28;20050;-79
2021/10/20 05:35:27;;;;;;;3.28;2.13;;;16.20;85.00;;;;;;5093927;28;20052;-78
2021/10/20 05:37:53;;;;;;;2.90;1.95;;;16.20;85.10;;;;;;5093369;28;20052;-78
2021/10/20 05:40:21;;;;;;;2.85;1.98;;;16.10;85.10;;;;;;5092731;28;20082;-79
2021/10/20 05:42:47;;;;;;;4.15;2.03;;;16.20;85.20;;;;;;5075139;28;20044;-78
2021/10/20 05:45:14;;;;;;;3.67;2.20;;;16.10;85.30;;;;;;5075547;28;20046;-78
2021/10/20 05:47:39;;;;;;;3.35;2.08;;;16.10;85.30;;;;;;5075315;28;20040;-78
2021/10/20 05:50:06;;;;;;;3.53;2.10;;;16.10;85.20;;;;;;5096656;28;20050;-77
2021/10/20 05:52:32;;;;;;;4.82;2.00;;;16.10;85.20;;;;;;5075558;28;20063;-78
2021/10/20 05:54:58;;;;;;;2.70;1.85;;;16.10;85.20;;;;;;5094188;28;20390;-78
2021/10/20 05:57:26;;;;;;;4.20;2.30;;;16.10;85.30;;;;;;5079223;28;20039;-79
2021/10/20 05:59:52;;;;;;;3.55;2.25;;;16.10;85.30;;;;;;5058869;28;20040;-79
2021/10/20 06:02:18;;;;;;;4.88;2.50;;;16.10;85.00;;;;;;5042493;28;20039;-78
2021/10/20 06:04:44;;;;;;;4.43;2.30;;;16.30;84.80;;;;;;5074407;28;20063;-78
2021/10/20 06:07:10;;;;;;;4.18;2.30;;;16.20;84.60;;;;;;5095405;28;20393;-80
2021/10/20 06:09:37;;;;;;;3.70;2.20;;;16.30;84.60;;;;;;5057801;28;20147;-77
2021/10/20 06:12:04;;;;;;;3.95;2.25;;;16.20;84.50;;;;;;5058300;28;20036;-78
2021/10/20 06:14:30;;;;;;;2.90;2.03;;;16.20;84.70;;;;;;5074767;28;20868;-77
2021/10/20 06:16:56;;;;;;;2.85;1.75;;;16.20;84.80;;;;;;5092446;28;20090;-77
2021/10/20 06:19:22;;;;;;;3.50;2.00;;;16.20;84.80;;;;;;5041224;28;20512;-77
2021/10/20 06:21:48;;;;;;;2.67;1.85;;;16.20;84.90;;;;;;5058558;28;20033;-77
2021/10/20 06:24:14;;;;;;;3.45;1.90;;;16.10;85.00;;;;;;5092708;28;20032;-77
2021/10/20 06:26:40;;;;;;;2.42;1.55;;;16.10;85.10;;;;;;5057976;28;20126;-77
2021/10/20 06:29:06;;;;;;;3.65;1.80;;;16.10;85.10;;;;;;5092828;28;20135;-77
2021/10/20 06:31:32;;;;;;;2.90;1.73;;;16.10;85.10;;;;;;5059013;28;20557;-77
2021/10/20 06:33:58;;;;;;;3.70;1.80;;;16.10;85.10;;;;;;5057221;28;20139;-77
2021/10/20 06:36:33;;;;;;;2.80;1.80;;;16.10;85.00;;;;;;5092176;28;20085;-77
2021/10/20 06:39:00;;;;;;;3.53;2.00;;;16.20;85.10;;;;;;5093946;28;20036;-78
2021/10/20 06:41:27;;;;;;;3.15;2.00;;;16.10;85.00;;;;;;5074171;28;20439;-78
2021/10/20 06:43:53;;;;;;;3.22;2.30;;;16.10;84.90;;;;;;5074882;28;20040;-77
2021/10/20 06:46:19;;;;;;;6.07;2.20;;;16.10;84.80;;;;;;5092496;28;20074;-78
2021/10/20 06:48:45;;;;;;;3.05;2.03;;;16.10;84.80;;;;;;5093142;28;20040;-77
2021/10/20 06:51:11;;;;;;;3.30;2.05;;;16.10;84.80;;;;;;5099205;28;20066;-80
2021/10/20 06:53:37;;;;;;;4.82;2.40;;;16.10;84.80;;;;;;5046600;28;20036;-81
2021/10/20 06:56:06;;;;;;;5.22;2.17;;;16.20;84.90;;;;;;5079717;28;20105;-82
2021/10/20 06:58:32;;;;;;;3.65;2.25;;;16.10;84.80;;;;;;5062582;28;20036;-81
2021/10/20 07:00:57;;;;;;;3.13;2.03;;;16.10;84.80;;;;;;5098185;28;20032;-82
2021/10/20 07:03:23;;;;;;;3.17;1.95;;;16.10;84.80;;;;;;5079303;28;20036;-81
2021/10/20 07:05:49;;;;;;;2.97;1.98;;;16.10;84.90;;;;;;5062002;28;20144;-83
2021/10/20 07:08:15;;;;;;;4.32;2.28;;;16.10;84.90;;;;;;5062120;28;20044;-83
2021/10/20 07:10:41;;;;;;;2.88;2.00;;;16.20;84.90;;;;;;5045119;28;20051;-83
2021/10/20 07:13:07;;;;;;;3.10;2.10;;;16.20;84.90;;;;;;5061105;28;20044;-81
2021/10/20 07:15:33;;;;;;;2.65;2.05;;;16.10;84.90;;;;;;5077706;28;20055;-81
2021/10/20 07:17:58;;;;;;;2.97;2.00;;;16.20;85.00;;;;;;5077570;28;20039;-81
2021/10/20 07:20:24;;;;;;;2.97;1.92;;;16.10;85.00;;;;;;5060950;28;20454;-82
2021/10/20 07:22:51;;;;;;;2.72;1.95;;;16.10;85.00;;;;;;5077751;28;20044;-82
2021/10/20 07:25:18;;;;;;;3.03;1.98;;;16.10;85.00;;;;;;5061290;28;20455;-81
2021/10/20 07:27:45;;;;;;;2.85;1.92;;;16.10;85.00;;;;;;5079851;28;20142;-80
2021/10/20 07:30:12;;;;;;;4.50;1.92;;;16.20;85.10;;;;;;5079901;28;20069;-80
2021/10/20 07:32:39;;;;;;;3.53;2.22;;;16.20;85.10;;;;;;5081813;28;20143;-78
2021/10/20 07:35:07;;;;;;;3.95;2.45;;;16.20;85.00;;;;;;5067714;28;20040;-79
2021/10/20 07:37:33;;;;;;;3.65;2.30;;;16.30;84.80;;;;;;5079078;28;20047;-80
2021/10/20 07:39:59;;;;;;;5.07;2.45;;;16.30;84.80;;;;;;5065543;28;20043;-81
2021/10/20 07:42:36;;;;;;;4.40;2.70;;;16.30;84.70;;;;;;5081883;28;20040;-84
2021/10/20 07:45:08;;;;;;;4.07;2.20;;;16.30;84.70;;;;;;5069941;28;20043;-83
2021/10/20 07:47:35;;;;;;;3.13;2.28;;;16.30;84.80;;;;;;5065850;28;20043;-83
2021/10/20 07:50:01;;;;;;;4.20;2.80;;;16.30;85.00;;;;;;5079806;28;20123;-79
2021/10/20 07:52:28;;;;;;;3.90;2.30;;;16.30;85.00;;;;;;5115776;28;20047;-79
2021/10/20 07:54:56;;;;;;;4.53;2.67;;;16.30;85.00;;;;;;5081778;28;20093;-78
2021/10/20 07:57:22;;;;;;;5.40;2.78;;;16.20;85.00;;;;;;5063740;28;20089;-81
2021/10/20 07:59:48;;;;;;;3.45;2.22;;;16.20;85.10;;;;;;5065635;28;20048;-79
2021/10/20 08:02:14;;;;;;;4.07;2.30;;;16.30;85.20;;;;;;5082392;28;20158;-79
2021/10/20 08:04:40;;;;;;;3.33;2.17;;;16.30;85.40;;;;;;5061995;28;20032;-79
2021/10/20 08:07:06;;;;;;;3.40;2.40;;;16.20;85.50;;;;;;5094083;28;20084;-81
2021/10/20 08:10:12;;;;;;;4.45;2.72;;;16.20;85.60;;;;;;5082686;28;20090;-82
2021/10/20 08:12:38;;;;;;;5.85;2.85;;;16.20;85.70;;;;;;5017896;28;20049;-83
2021/10/20 08:15:06;;;;;;;3.58;2.38;;;16.10;85.60;;;;;;5035283;28;20046;-82
2021/10/20 08:17:46;;;;;;;3.67;2.28;;;16.10;85.70;;;;;;5024918;28;20048;-85
2021/10/20 08:20:15;;;;;;;3.50;2.13;;;16.20;85.80;;;;;;4995606;28;20021;-79
2021/10/20 08:22:40;;;;;;;3.65;2.30;;;16.10;85.80;;;;;;5010034;28;20053;-79
2021/10/20 08:25:09;;;;;;;3.85;2.50;;;16.10;85.80;;;;;;5029177;28;20069;-79
2021/10/20 08:27:35;;;;;;;3.40;2.22;;;16.20;85.90;;;;;;5032957;28;20065;-81
2021/10/20 08:30:01;;;;;;;3.22;2.30;;;16.20;85.90;;;;;;5032554;28;20407;-80
2021/10/20 08:32:27;;;;;;;3.20;2.35;;;16.20;86.00;;;;;;5037977;28;20122;-78
2021/10/20 08:34:52;;;;;;;3.47;2.30;;;16.20;86.10;;;;;;4992607;28;20045;-79
2021/10/20 08:37:18;;;;;;;4.07;2.42;;;16.10;86.10;;;;;;5033731;28;20086;-81
2021/10/20 08:39:45;;;;;;;3.83;2.58;;;16.20;86.20;;;;;;5095355;28;20044;-81
2021/10/20 08:42:11;;;;;;;3.67;2.45;;;16.20;86.20;;;;;;5082026;28;20039;-78
2021/10/20 08:44:55;;;;;;;3.75;2.78;;;16.10;86.10;;;;;;5081230;28;20048;-82
2021/10/20 08:47:29;;;;;;;4.07;2.70;;;16.20;86.10;;;;;;5037304;28;20047;-83
2021/10/20 08:55:26;;;;;;;3.90;2.60;;;16.20;86.20;;;;;;5050646;28;20094;-84
2021/10/20 08:59:10;;;;;;;3.65;2.40;;;16.20;86.20;;;;;;4932899;29;20091;-84
2021/10/20 09:01:37;;;;;;;4.03;2.60;;;16.20;86.40;;;;;;4859110;29;20088;-81
2021/10/20 09:04:18;;;;;;;3.97;2.53;;;16.30;86.40;;;;;;4845720;29;20061;-83
2021/10/20 09:06:44;;;;;;;5.57;3.25;;;16.40;86.20;;;;;;4844549;29;20053;-80
2021/10/20 09:09:10;;;;;;;5.03;2.80;;;16.50;85.90;;;;;;4859261;29;20099;-80
2021/10/20 09:11:37;;;;;;;4.97;3.22;;;16.70;85.80;;;;;;4876092;29;20056;-81
2021/10/20 09:14:06;;;;;;;5.18;3.13;;;16.70;85.50;;;;;;4897067;29;20048;-80
2021/10/20 09:16:36;;;;;;;5.00;3.10;;;16.80;85.30;;;;;;4864043;29;20044;-81
2021/10/20 09:19:21;;;;;;;4.65;3.25;;;16.90;85.30;;;;;;4880809;29;20041;-80
2021/10/20 09:22:09;;;;;;;4.13;2.88;;;16.90;85.20;;;;;;4885292;29;20129;-80
2021/10/20 09:24:38;;;;;;;5.30;3.50;;;16.90;85.20;;;;;;4914946;29;20091;-81
2021/10/20 09:27:16;;;;;;;4.50;2.97;;;16.90;85.30;;;;;;4923907;29;20923;-83
2021/10/20 09:29:44;;;;;;;4.68;2.97;;;16.90;85.30;;;;;;4953808;29;20051;-83
2021/10/20 09:32:11;;;;;;;4.63;3.15;;;16.90;85.50;;;;;;4953028;28;20053;-83
2021/10/20 09:34:38;;;;;;;4.32;3.08;;;16.90;85.50;;;;;;5019180;28;20044;-84
2021/10/20 09:37:06;;;;;;;4.85;3.13;;;16.80;85.50;;;;;;5047907;28;20059;-79
2021/10/20 09:39:38;;;;;;;4.40;2.90;;;17.00;85.60;;;;;;5061233;28;20051;-85
2021/10/20 09:42:12;;;;;;;6.68;3.50;;;17.00;85.60;;;;;;5077998;28;20362;-82
2021/10/20 09:44:48;;;;;;;5.50;3.35;;;17.00;85.50;;;;;;5077821;28;20036;-82
2021/10/20 09:47:17;;;;;;;4.50;2.80;;;17.00;85.50;;;;;;5076734;28;20105;-82
2021/10/20 09:49:48;;;;;;;4.88;3.00;;;17.00;85.40;;;;;;5060428;28;20047;-84
2021/10/20 09:52:21;;;;;;;5.13;2.83;;;17.10;85.50;;;;;;5042808;28;20078;-84
2021/10/20 09:54:47;;;;;;;3.75;2.35;;;17.10;85.40;;;;;;4992304;28;20492;-83
2021/10/20 09:57:15;;;;;;;4.35;2.83;;;17.10;85.40;;;;;;4976764;28;20073;-82
2021/10/20 09:59:43;;;;;;;5.00;2.65;;;17.20;85.50;;;;;;4944534;28;20077;-85
2021/10/20 10:02:10;;;;;;;4.85;2.70;;;17.20;85.60;;;;;;4975605;28;20520;-83
2021/10/20 10:04:40;;;;;;;5.07;2.92;;;17.20;85.50;;;;;;4960518;28;20053;-84
2021/10/20 10:07:06;;;;;;;3.70;2.58;;;17.20;85.60;;;;;;4993081;28;20070;-80
2021/10/20 10:09:35;;;;;;;4.95;2.97;;;17.30;85.60;;;;;;4992934;28;20038;-86
2021/10/20 10:12:08;;;;;;;3.47;2.80;;;17.50;85.60;;;;;;4943058;28;20058;-80
2021/10/20 10:14:44;;;;;;;5.00;3.40;;;17.50;85.20;;;;;;4990887;28;20527;-79
2021/10/20 10:17:12;;;;;;;4.10;2.85;;;17.60;85.00;;;;;;4943056;28;20113;-79
2021/10/20 10:19:40;;;;;;;5.05;3.38;;;17.60;84.80;;;;;;4975424;28;20054;-79
2021/10/20 10:22:21;;;;;;;4.60;3.10;;;17.60;84.90;;;;;;4974761;28;20038;-80
2021/10/20 10:24:47;;;;;;;4.13;2.88;;;17.70;85.00;;;;;;4970000;28;20042;-79
2021/10/20 10:27:13;;;;;;;4.25;2.85;;;17.60;85.00;;;;;;5074428;28;20054;-80
2021/10/20 10:29:52;;;;;;;5.13;2.92;;;17.50;85.00;;;;;;5095742;28;20050;-78
2021/10/20 10:32:19;;;;;;;4.30;3.05;;;17.50;85.20;;;;;;5097191;28;20520;-79
2021/10/20 10:34:47;;;;;;;4.57;2.90;;;17.50;85.40;;;;;;5095668;28;20040;-79
2021/10/20 10:37:32;;;;;;;4.05;2.95;;;17.50;85.50;;;;;;5078443;28;20089;-79
2021/10/20 10:40:17;;;;;;;4.57;3.17;;;17.40;85.60;;;;;;5077563;28;20097;-80
2021/10/20 10:42:46;;;;;;;5.15;3.05;;;17.40;85.60;;;;;;5046977;28;20043;-79
2021/10/20 10:45:15;;;;;;;3.97;2.92;;;17.30;85.70;;;;;;5077861;28;20123;-80
2021/10/20 10:48:02;;;;;;;3.30;2.50;;;17.40;85.80;;;;;;5077738;28;20038;-81
2021/10/20 10:50:49;;;;;;;3.95;2.58;;;17.40;85.90;;;;;;5095076;28;20083;-81
2021/10/20 10:53:35;;;;;;;4.25;2.67;;;17.30;85.90;;;;;;5077650;28;20097;-82
2021/10/20 10:56:09;;;;;;;3.53;2.47;;;17.40;85.90;;;;;;5061917;28;20047;-80
2021/10/20 10:58:55;;;;;;;4.50;3.00;;;17.40;85.80;;;;;;5079241;28;20048;-80
2021/10/20 11:01:47;;;;;;;5.10;3.20;;;17.50;85.70;;;;;;5077612;28;20044;-81
2021/10/20 11:04:34;;;;;;;4.30;2.97;;;17.50;85.60;;;;;;5076784;28;20101;-78
2021/10/20 11:07:02;;;;;;;6.28;3.47;;;17.50;85.50;;;;;;5077906;28;20131;-80
2021/10/20 11:10:00;;;;;;;4.25;3.00;;;17.40;85.40;;;;;;5081591;28;20087;-84
2021/10/20 11:12:39;;;;;;;4.30;2.85;;;17.50;85.40;;;;;;5077787;28;20044;-83
2021/10/20 11:15:57;;;;;;;3.92;2.55;;;17.50;85.40;;;;;;5078350;28;20044;-85
2021/10/20 11:18:24;;;;;;;3.45;2.40;;;17.50;85.40;;;;;;5018857;28;20179;-81
2021/10/20 11:20:53;;;;;;;3.50;2.45;;;17.50;85.50;;;;;;4989483;28;20026;-80
2021/10/20 11:23:22;;;;;;;3.55;2.60;;;17.50;85.50;;;;;;4997557;28;20041;-85
2021/10/20 11:26:41;;;;;;;4.32;3.05;;;17.60;85.50;;;;;;4977342;28;20062;-87
2021/10/20 11:29:15;;;;;;;3.85;2.65;;;17.60;85.30;;;;;;4962502;28;20035;-86
2021/10/20 11:31:56;;;;;;;4.35;2.95;;;17.60;85.20;;;;;;4921599;29;20040;-84
2021/10/20 11:34:30;;;;;;;4.13;2.60;;;17.60;85.20;;;;;;4917292;29;20562;-85
2021/10/20 11:37:03;;;;;;;4.28;2.38;;;17.60;85.20;;;;;;4920125;29;20048;-83
2021/10/20 11:39:38;;;;;;;3.42;2.35;;;17.60;85.30;;;;;;4924950;29;20044;-84
2021/10/20 11:42:09;;;;;;;3.40;2.30;;;17.60;85.30;;;;;;4912026;29;20084;-83
2021/10/20 11:48:41;;;;;;;3.30;2.20;;;17.60;85.40;;;;;;4877604;29;20049;-85
2021/10/20 11:51:11;;;;;;;4.03;2.40;;;17.60;85.30;;;;;;4881266;29;20041;-83
2021/10/20 11:53:43;;;;;;;4.22;2.50;;;17.70;85.30;;;;;;4887099;29;20052;-83
2021/10/20 12:05:47;;;;;;;4.15;2.83;;;17.50;85.20;;;;;;4918343;29;20052;-84
2021/10/20 12:08:24;;;;;;;3.92;2.80;;;17.60;85.30;;;;;;4908817;29;20055;-85
2021/10/20 12:10:50;;;;;;;3.22;2.40;;;17.50;85.30;;;;;;4942342;29;20055;-83
2021/10/20 12:13:16;;;;;;;3.15;2.25;;;17.60;85.40;;;;;;4929623;29;20469;-81
2021/10/20 12:15:42;;;;;;;3.58;2.25;;;17.70;85.60;;;;;;4947728;29;20043;-83
2021/10/20 12:18:19;;;;;;;3.60;2.53;;;17.60;85.40;;;;;;4944699;29;20054;-83
2021/10/20 12:20:57;;;;;;;3.50;2.35;;;17.50;85.40;;;;;;4899901;29;20064;-81
2021/10/20 12:23:30;;;;;;;3.60;2.35;;;17.60;85.50;;;;;;4920235;29;20088;-79
2021/10/20 12:26:30;;;;;;;3.47;2.50;;;17.60;85.50;;;;;;4906735;29;20104;-91
2021/10/20 12:29:02;;;;;;;3.50;2.38;;;17.50;85.50;;;;;;4914848;29;20094;-86
2021/10/20 12:31:47;;;;;;;3.42;1.95;;;17.50;85.60;;;;;;4930016;29;20102;-88
2021/10/20 12:34:41;;;;;;;3.83;2.72;;;17.40;85.80;;;;;;4924697;29;20047;-82
2021/10/20 12:37:07;;;;;;;3.53;2.50;;;17.40;85.90;;;;;;4987352;28;20048;-81
2021/10/20 12:39:33;;;;;;;4.35;2.70;;;17.40;85.80;;;;;;5009799;28;20481;-79
2021/10/20 12:42:11;;;;;;;4.10;3.00;;;17.50;85.70;;;;;;4963110;28;20043;-86
2021/10/20 12:45:01;;;;;;;4.72;2.72;;;17.50;85.70;;;;;;4962522;28;20547;-85
2021/10/20 12:48:13;;;;;;;4.18;2.50;;;17.40;85.70;;;;;;4942084;28;20182;-83
2021/10/20 12:50:41;;;;;;;4.57;2.90;;;17.50;85.70;;;;;;4918790;28;20490;-83
2021/10/20 12:53:29;;;;;;;4.30;2.85;;;17.50;85.60;;;;;;4959564;28;20054;-86
2021/10/20 12:56:22;;;;;;;4.78;3.10;;;17.60;85.50;;;;;;4966023;28;20044;-82
2021/10/20 12:59:18;;;;;;;4.53;2.88;;;17.60;85.50;;;;;;4932810;29;20117;-84
2021/10/20 13:01:44;;;;;;;3.95;2.70;;;17.70;85.50;;;;;;4895947;29;20060;-80
2021/10/20 13:04:10;;;;;;;3.92;2.53;;;17.60;85.40;;;;;;4880425;29;20153;-80
2021/10/20 13:06:37;;;;;;;3.53;2.50;;;17.60;85.30;;;;;;4881354;29;20045;-80
2021/10/20 13:09:05;;;;;;;4.57;3.05;;;17.60;85.30;;;;;;4899618;29;20055;-79
2021/10/20 13:11:31;;;;;;;3.90;2.70;;;17.70;85.30;;;;;;4916989;29;20055;-81
2021/10/20 13:13:57;;;;;;;4.75;2.67;;;17.70;85.30;;;;;;4968687;28;20042;-82
2021/10/20 13:16:23;;;;;;;4.03;2.70;;;17.70;85.20;;;;;;4940931;28;20049;-83
2021/10/20 13:18:49;;;;;;;3.55;2.63;;;17.60;85.20;;;;;;4971734;28;20137;-82